sensor_id;sensor_type;location;lat;lon;timestamp;P1;P2;P0
69123;PMS5003;56232;53.384;-2.732;2023-05-08T00:02:03;5;4;
69123;PMS5003;56232;53.384;-2.732;2023-05-08T00:04:28;5;4;
69123;PMS5003;56232;53.384;-2.732;2023-05-08T00:06:54;5;5;
69123;PMS5003;56232;53.384;-2.732;2023-05-08T00:09:19;5;4;
69123;PMS5003;56232;53.384;-2.732;2023-05-08T00:11:45;5;5;
69123;PMS5003;56232;53.384;-2.732;2023-05-08T00:14:10;5;5;
69123;PMS5003;56232;53.384;-2.732;2023-05-08T00:16:36;4;3;
69123;PMS5003;56232;53.384;-2.732;2023-05-08T00:19:02;3;2;
69123;PMS5003;56232;53.384;-2.732;2023-05-08T00:21:27;4;3;
69123;PMS5003;56232;53.384;-2.732;2023-05-08T00:23:53;4;3;
69123;PMS5003;56232;53.384;-2.732;2023-05-08T00:26:19;4;4;
69123;PMS5003;56232;53.384;-2.732;2023-05-08T00:28:44;3;3;
69123;PMS5003;56232;53.384;-2.732;2023-05-08T00:31:10;3;3;
69123;PMS5003;56232;53.384;-2.732;2023-05-08T00:33:35;4;4;
69123;PMS5003;56232;53.384;-2.732;2023-05-08T00:36:01;2;2;
69123;PMS5003;56232;53.384;-2.732;2023-05-08T00:38:28;3;3;
69123;PMS5003;56232;53.384;-2.732;2023-05-08T00:40:52;3;3;
69123;PMS5003;56232;53.384;-2.732;2023-05-08T00:43:18;3;3;
69123;PMS5003;56232;53.384;-2.732;2023-05-08T00:45:44;1;1;
69123;PMS5003;56232;53.384;-2.732;2023-05-08T00:48:09;3;3;
69123;PMS5003;56232;53.384;-2.732;2023-05-08T00:50:35;2;2;
69123;PMS5003;56232;53.384;-2.732;2023-05-08T00:53:01;2;2;
69123;PMS5003;56232;53.384;-2.732;2023-05-08T00:55:26;3;3;
69123;PMS5003;56232;53.384;-2.732;2023-05-08T00:57:52;2;2;
69123;PMS5003;56232;53.384;-2.732;2023-05-08T01:00:18;4;3;
69123;PMS5003;56232;53.384;-2.732;2023-05-08T01:02:43;3;3;
69123;PMS5003;56232;53.384;-2.732;2023-05-08T01:05:09;3;3;
69123;PMS5003;56232;53.384;-2.732;2023-05-08T01:07:34;2;2;
69123;PMS5003;56232;53.384;-2.732;2023-05-08T01:10:00;4;3;
69123;PMS5003;56232;53.384;-2.732;2023-05-08T01:12:28;3;3;
69123;PMS5003;56232;53.384;-2.732;2023-05-08T01:14:55;3;3;
69123;PMS5003;56232;53.384;-2.732;2023-05-08T01:17:19;3;3;
69123;PMS5003;56232;53.384;-2.732;2023-05-08T01:22:10;3;2;
69123;PMS5003;56232;53.384;-2.732;2023-05-08T01:29:28;3;3;
69123;PMS5003;56232;53.384;-2.732;2023-05-08T01:34:18;3;3;
69123;PMS5003;56232;53.384;-2.732;2023-05-08T01:36:44;4;3;
69123;PMS5003;56232;53.384;-2.732;2023-05-08T01:39:09;4;4;
69123;PMS5003;56232;53.384;-2.732;2023-05-08T01:41:33;2;2;
69123;PMS5003;56232;53.384;-2.732;2023-05-08T01:44:03;2;2;
69123;PMS5003;56232;53.384;-2.732;2023-05-08T01:46:25;2;2;
69123;PMS5003;56232;53.384;-2.732;2023-05-08T01:48:50;2;2;
69123;PMS5003;56232;53.384;-2.732;2023-05-08T01:51:16;3;3;
69123;PMS5003;56232;53.384;-2.732;2023-05-08T01:53:41;2;2;
69123;PMS5003;56232;53.384;-2.732;2023-05-08T01:56:08;3;3;
69123;PMS5003;56232;53.384;-2.732;2023-05-08T01:58:32;3;3;
69123;PMS5003;56232;53.384;-2.732;2023-05-08T02:00:58;5;4;
69123;PMS5003;56232;53.384;-2.732;2023-05-08T02:03:24;4;4;
69123;PMS5003;56232;53.384;-2.732;2023-05-08T02:05:49;3;3;
69123;PMS5003;56232;53.384;-2.732;2023-05-08T02:08:15;5;4;
69123;PMS5003;56232;53.384;-2.732;2023-05-08T02:10:41;3;3;
69123;PMS5003;56232;53.384;-2.732;2023-05-08T02:13:07;4;4;
69123;PMS5003;56232;53.384;-2.732;2023-05-08T02:15:32;3;3;
69123;PMS5003;56232;53.384;-2.732;2023-05-08T02:17:58;3;3;
69123;PMS5003;56232;53.384;-2.732;2023-05-08T02:20:23;2;2;
69123;PMS5003;56232;53.384;-2.732;2023-05-08T02:22:49;1;1;
69123;PMS5003;56232;53.384;-2.732;2023-05-08T02:25:15;3;3;
69123;PMS5003;56232;53.384;-2.732;2023-05-08T02:27:41;4;4;
69123;PMS5003;56232;53.384;-2.732;2023-05-08T02:30:06;2;2;
69123;PMS5003;56232;53.384;-2.732;2023-05-08T02:32:32;2;2;
69123;PMS5003;56232;53.384;-2.732;2023-05-08T02:34:57;4;4;
69123;PMS5003;56232;53.384;-2.732;2023-05-08T02:37:23;5;5;
69123;PMS5003;56232;53.384;-2.732;2023-05-08T02:39:49;5;5;
69123;PMS5003;56232;53.384;-2.732;2023-05-08T02:42:14;6;6;
69123;PMS5003;56232;53.384;-2.732;2023-05-08T02:44:40;5;5;
69123;PMS5003;56232;53.384;-2.732;2023-05-08T02:47:09;7;6;
69123;PMS5003;56232;53.384;-2.732;2023-05-08T02:49:32;8;8;
69123;PMS5003;56232;53.384;-2.732;2023-05-08T02:51:59;8;8;
69123;PMS5003;56232;53.384;-2.732;2023-05-08T02:54:23;4;4;
69123;PMS5003;56232;53.384;-2.732;2023-05-08T02:56:51;6;6;
69123;PMS5003;56232;53.384;-2.732;2023-05-08T02:59:15;6;6;
69123;PMS5003;56232;53.384;-2.732;2023-05-08T03:01:41;8;8;
69123;PMS5003;56232;53.384;-2.732;2023-05-08T03:04:06;8;8;
69123;PMS5003;56232;53.384;-2.732;2023-05-08T03:06:32;8;7;
69123;PMS5003;56232;53.384;-2.732;2023-05-08T03:08:56;8;6;
69123;PMS5003;56232;53.384;-2.732;2023-05-08T03:11:23;7;7;
69123;PMS5003;56232;53.384;-2.732;2023-05-08T03:18:40;11;11;
69123;PMS5003;56232;53.384;-2.732;2023-05-08T03:21:05;12;11;
69123;PMS5003;56232;53.384;-2.732;2023-05-08T03:23:32;9;9;
69123;PMS5003;56232;53.384;-2.732;2023-05-08T03:25:56;10;10;
69123;PMS5003;56232;53.384;-2.732;2023-05-08T03:28:22;8;8;
69123;PMS5003;56232;53.384;-2.732;2023-05-08T03:30:47;12;12;
69123;PMS5003;56232;53.384;-2.732;2023-05-08T03:33:13;10;10;
69123;PMS5003;56232;53.384;-2.732;2023-05-08T03:35:39;10;10;
69123;PMS5003;56232;53.384;-2.732;2023-05-08T03:38:06;6;6;
69123;PMS5003;56232;53.384;-2.732;2023-05-08T03:40:30;6;4;
69123;PMS5003;56232;53.384;-2.732;2023-05-08T03:42:56;5;5;
69123;PMS5003;56232;53.384;-2.732;2023-05-08T03:45:21;6;5;
69123;PMS5003;56232;53.384;-2.732;2023-05-08T03:47:47;7;6;
69123;PMS5003;56232;53.384;-2.732;2023-05-08T03:50:13;5;5;
69123;PMS5003;56232;53.384;-2.732;2023-05-08T03:52:38;6;5;
69123;PMS5003;56232;53.384;-2.732;2023-05-08T03:55:05;5;5;
69123;PMS5003;56232;53.384;-2.732;2023-05-08T03:57:32;4;4;
69123;PMS5003;56232;53.384;-2.732;2023-05-08T03:59:58;6;6;
69123;PMS5003;56232;53.384;-2.732;2023-05-08T04:02:32;4;4;
69123;PMS5003;56232;53.384;-2.732;2023-05-08T04:04:49;3;3;
69123;PMS5003;56232;53.384;-2.732;2023-05-08T04:07:14;3;3;
69123;PMS5003;56232;53.384;-2.732;2023-05-08T04:09:41;4;4;
69123;PMS5003;56232;53.384;-2.732;2023-05-08T04:12:06;4;4;
69123;PMS5003;56232;53.384;-2.732;2023-05-08T04:14:32;5;4;
69123;PMS5003;56232;53.384;-2.732;2023-05-08T04:16:59;4;4;
69123;PMS5003;56232;53.384;-2.732;2023-05-08T04:19:22;4;4;
69123;PMS5003;56232;53.384;-2.732;2023-05-08T04:21:47;5;5;
69123;PMS5003;56232;53.384;-2.732;2023-05-08T04:24:13;4;4;
69123;PMS5003;56232;53.384;-2.732;2023-05-08T04:26:38;5;4;
69123;PMS5003;56232;53.384;-2.732;2023-05-08T04:29:04;5;5;
69123;PMS5003;56232;53.384;-2.732;2023-05-08T04:31:29;7;6;
69123;PMS5003;56232;53.384;-2.732;2023-05-08T04:33:55;6;6;
69123;PMS5003;56232;53.384;-2.732;2023-05-08T04:36:20;13;12;
69123;PMS5003;56232;53.384;-2.732;2023-05-08T04:38:46;13;13;
69123;PMS5003;56232;53.384;-2.732;2023-05-08T04:41:12;15;13;
69123;PMS5003;56232;53.384;-2.732;2023-05-08T04:43:37;14;14;
69123;PMS5003;56232;53.384;-2.732;2023-05-08T04:46:04;16;16;
69123;PMS5003;56232;53.384;-2.732;2023-05-08T04:48:29;29;26;
69123;PMS5003;56232;53.384;-2.732;2023-05-08T04:50:54;20;20;
69123;PMS5003;56232;53.384;-2.732;2023-05-08T04:53:19;18;18;
69123;PMS5003;56232;53.384;-2.732;2023-05-08T04:55:44;16;16;
69123;PMS5003;56232;53.384;-2.732;2023-05-08T04:58:10;18;18;
69123;PMS5003;56232;53.384;-2.732;2023-05-08T05:00:35;22;21;
69123;PMS5003;56232;53.384;-2.732;2023-05-08T05:03:01;32;30;
69123;PMS5003;56232;53.384;-2.732;2023-05-08T05:05:26;34;33;
69123;PMS5003;56232;53.384;-2.732;2023-05-08T05:07:51;37;34;
69123;PMS5003;56232;53.384;-2.732;2023-05-08T05:10:16;33;33;
69123;PMS5003;56232;53.384;-2.732;2023-05-08T05:12:42;29;26;
69123;PMS5003;56232;53.384;-2.732;2023-05-08T05:15:08;28;27;
69123;PMS5003;56232;53.384;-2.732;2023-05-08T05:17:33;28;28;
69123;PMS5003;56232;53.384;-2.732;2023-05-08T05:19:58;27;27;
69123;PMS5003;56232;53.384;-2.732;2023-05-08T05:22:24;27;26;
69123;PMS5003;56232;53.384;-2.732;2023-05-08T05:24:49;22;21;
69123;PMS5003;56232;53.384;-2.732;2023-05-08T05:27:15;26;23;
69123;PMS5003;56232;53.384;-2.732;2023-05-08T05:29:40;27;27;
69123;PMS5003;56232;53.384;-2.732;2023-05-08T05:32:06;31;30;
69123;PMS5003;56232;53.384;-2.732;2023-05-08T05:34:30;27;27;
69123;PMS5003;56232;53.384;-2.732;2023-05-08T05:36:56;20;20;
69123;PMS5003;56232;53.384;-2.732;2023-05-08T05:39:22;14;14;
69123;PMS5003;56232;53.384;-2.732;2023-05-08T05:41:47;21;20;
69123;PMS5003;56232;53.384;-2.732;2023-05-08T05:44:13;11;11;
69123;PMS5003;56232;53.384;-2.732;2023-05-08T05:46:38;10;10;
69123;PMS5003;56232;53.384;-2.732;2023-05-08T05:49:04;11;11;
69123;PMS5003;56232;53.384;-2.732;2023-05-08T05:51:30;8;8;
69123;PMS5003;56232;53.384;-2.732;2023-05-08T05:53:55;8;7;
69123;PMS5003;56232;53.384;-2.732;2023-05-08T05:56:21;10;9;
69123;PMS5003;56232;53.384;-2.732;2023-05-08T05:58:47;11;9;
69123;PMS5003;56232;53.384;-2.732;2023-05-08T06:01:12;9;7;
69123;PMS5003;56232;53.384;-2.732;2023-05-08T06:03:38;9;8;
69123;PMS5003;56232;53.384;-2.732;2023-05-08T06:06:04;9;9;
69123;PMS5003;56232;53.384;-2.732;2023-05-08T06:08:29;15;12;
69123;PMS5003;56232;53.384;-2.732;2023-05-08T06:10:54;10;10;
69123;PMS5003;56232;53.384;-2.732;2023-05-08T06:13:20;7;7;
69123;PMS5003;56232;53.384;-2.732;2023-05-08T06:15:45;9;9;
69123;PMS5003;56232;53.384;-2.732;2023-05-08T06:18:11;11;10;
69123;PMS5003;56232;53.384;-2.732;2023-05-08T06:20:37;9;9;
69123;PMS5003;56232;53.384;-2.732;2023-05-08T06:23:02;8;8;
69123;PMS5003;56232;53.384;-2.732;2023-05-08T06:25:28;11;11;
69123;PMS5003;56232;53.384;-2.732;2023-05-08T06:27:54;12;11;
69123;PMS5003;56232;53.384;-2.732;2023-05-08T06:30:19;9;8;
69123;PMS5003;56232;53.384;-2.732;2023-05-08T06:32:45;9;9;
69123;PMS5003;56232;53.384;-2.732;2023-05-08T06:35:11;10;10;
69123;PMS5003;56232;53.384;-2.732;2023-05-08T06:37:36;9;8;
69123;PMS5003;56232;53.384;-2.732;2023-05-08T06:40:02;11;11;
69123;PMS5003;56232;53.384;-2.732;2023-05-08T06:42:28;8;8;
69123;PMS5003;56232;53.384;-2.732;2023-05-08T06:44:53;11;11;
69123;PMS5003;56232;53.384;-2.732;2023-05-08T06:47:19;12;10;
69123;PMS5003;56232;53.384;-2.732;2023-05-08T06:49:45;15;13;
69123;PMS5003;56232;53.384;-2.732;2023-05-08T06:52:10;11;11;
69123;PMS5003;56232;53.384;-2.732;2023-05-08T06:54:36;10;10;
69123;PMS5003;56232;53.384;-2.732;2023-05-08T06:57:01;9;9;
69123;PMS5003;56232;53.384;-2.732;2023-05-08T06:59:27;10;10;
69123;PMS5003;56232;53.384;-2.732;2023-05-08T07:01:52;11;11;
69123;PMS5003;56232;53.384;-2.732;2023-05-08T07:04:18;10;10;
69123;PMS5003;56232;53.384;-2.732;2023-05-08T07:06:43;12;12;
69123;PMS5003;56232;53.384;-2.732;2023-05-08T07:09:09;12;11;
69123;PMS5003;56232;53.384;-2.732;2023-05-08T07:11:35;10;10;
69123;PMS5003;56232;53.384;-2.732;2023-05-08T07:14:01;9;9;
69123;PMS5003;56232;53.384;-2.732;2023-05-08T07:16:26;11;11;
69123;PMS5003;56232;53.384;-2.732;2023-05-08T07:18:52;11;10;
69123;PMS5003;56232;53.384;-2.732;2023-05-08T07:21:17;10;9;
69123;PMS5003;56232;53.384;-2.732;2023-05-08T07:23:43;8;7;
69123;PMS5003;56232;53.384;-2.732;2023-05-08T07:26:08;11;10;
69123;PMS5003;56232;53.384;-2.732;2023-05-08T07:28:34;11;10;
69123;PMS5003;56232;53.384;-2.732;2023-05-08T07:31:02;12;12;
69123;PMS5003;56232;53.384;-2.732;2023-05-08T07:33:25;10;8;
69123;PMS5003;56232;53.384;-2.732;2023-05-08T07:35:51;12;11;
69123;PMS5003;56232;53.384;-2.732;2023-05-08T07:38:16;10;10;
69123;PMS5003;56232;53.384;-2.732;2023-05-08T07:40:42;10;9;
69123;PMS5003;56232;53.384;-2.732;2023-05-08T07:43:08;9;9;
69123;PMS5003;56232;53.384;-2.732;2023-05-08T07:45:34;9;9;
69123;PMS5003;56232;53.384;-2.732;2023-05-08T07:47:59;8;8;
69123;PMS5003;56232;53.384;-2.732;2023-05-08T07:50:25;9;9;
69123;PMS5003;56232;53.384;-2.732;2023-05-08T07:52:50;9;9;
69123;PMS5003;56232;53.384;-2.732;2023-05-08T07:55:16;10;10;
69123;PMS5003;56232;53.384;-2.732;2023-05-08T07:57:42;8;8;
69123;PMS5003;56232;53.384;-2.732;2023-05-08T08:00:08;12;10;
69123;PMS5003;56232;53.384;-2.732;2023-05-08T08:02:33;7;7;
69123;PMS5003;56232;53.384;-2.732;2023-05-08T08:04:58;9;9;
69123;PMS5003;56232;53.384;-2.732;2023-05-08T08:07:24;8;8;
69123;PMS5003;56232;53.384;-2.732;2023-05-08T08:09:50;8;8;
69123;PMS5003;56232;53.384;-2.732;2023-05-08T08:12:15;7;7;
69123;PMS5003;56232;53.384;-2.732;2023-05-08T08:14:41;8;7;
69123;PMS5003;56232;53.384;-2.732;2023-05-08T08:17:07;9;9;
69123;PMS5003;56232;53.384;-2.732;2023-05-08T08:19:32;6;6;
69123;PMS5003;56232;53.384;-2.732;2023-05-08T08:21:58;7;7;
69123;PMS5003;56232;53.384;-2.732;2023-05-08T08:24:23;7;7;
69123;PMS5003;56232;53.384;-2.732;2023-05-08T08:26:49;10;10;
69123;PMS5003;56232;53.384;-2.732;2023-05-08T08:29:15;7;7;
69123;PMS5003;56232;53.384;-2.732;2023-05-08T08:31:40;6;6;
69123;PMS5003;56232;53.384;-2.732;2023-05-08T08:34:06;5;5;
69123;PMS5003;56232;53.384;-2.732;2023-05-08T08:36:31;8;8;
69123;PMS5003;56232;53.384;-2.732;2023-05-08T08:38:57;6;6;
69123;PMS5003;56232;53.384;-2.732;2023-05-08T08:41:23;7;7;
69123;PMS5003;56232;53.384;-2.732;2023-05-08T08:43:48;9;9;
69123;PMS5003;56232;53.384;-2.732;2023-05-08T08:46:14;7;7;
69123;PMS5003;56232;53.384;-2.732;2023-05-08T08:48:44;8;8;
69123;PMS5003;56232;53.384;-2.732;2023-05-08T08:51:06;7;7;
69123;PMS5003;56232;53.384;-2.732;2023-05-08T08:53:33;7;7;
69123;PMS5003;56232;53.384;-2.732;2023-05-08T08:55:57;7;7;
69123;PMS5003;56232;53.384;-2.732;2023-05-08T08:58:25;6;6;
69123;PMS5003;56232;53.384;-2.732;2023-05-08T09:00:48;7;7;
69123;PMS5003;56232;53.384;-2.732;2023-05-08T09:03:14;7;7;
69123;PMS5003;56232;53.384;-2.732;2023-05-08T09:05:39;7;7;
69123;PMS5003;56232;53.384;-2.732;2023-05-08T09:08:05;5;5;
69123;PMS5003;56232;53.384;-2.732;2023-05-08T09:10:31;7;7;
69123;PMS5003;56232;53.384;-2.732;2023-05-08T09:12:56;6;5;
69123;PMS5003;56232;53.384;-2.732;2023-05-08T09:15:22;7;7;
69123;PMS5003;56232;53.384;-2.732;2023-05-08T09:17:48;5;4;
69123;PMS5003;56232;53.384;-2.732;2023-05-08T09:20:13;8;6;
69123;PMS5003;56232;53.384;-2.732;2023-05-08T09:22:39;5;5;
69123;PMS5003;56232;53.384;-2.732;2023-05-08T09:25:05;4;4;
69123;PMS5003;56232;53.384;-2.732;2023-05-08T09:27:30;6;6;
69123;PMS5003;56232;53.384;-2.732;2023-05-08T09:29:57;8;8;
69123;PMS5003;56232;53.384;-2.732;2023-05-08T09:32:22;6;6;
69123;PMS5003;56232;53.384;-2.732;2023-05-08T09:34:50;5;5;
69123;PMS5003;56232;53.384;-2.732;2023-05-08T09:37:13;6;6;
69123;PMS5003;56232;53.384;-2.732;2023-05-08T09:39:38;6;6;
69123;PMS5003;56232;53.384;-2.732;2023-05-08T09:42:04;6;6;
69123;PMS5003;56232;53.384;-2.732;2023-05-08T09:49:21;4;4;
69123;PMS5003;56232;53.384;-2.732;2023-05-08T09:51:50;5;4;
69123;PMS5003;56232;53.384;-2.732;2023-05-08T09:54:16;6;6;
69123;PMS5003;56232;53.384;-2.732;2023-05-08T09:56:38;4;4;
69123;PMS5003;56232;53.384;-2.732;2023-05-08T09:59:04;4;4;
69123;PMS5003;56232;53.384;-2.732;2023-05-08T10:01:30;4;4;
69123;PMS5003;56232;53.384;-2.732;2023-05-08T10:03:55;6;6;
69123;PMS5003;56232;53.384;-2.732;2023-05-08T10:06:20;4;4;
69123;PMS5003;56232;53.384;-2.732;2023-05-08T10:08:46;5;5;
69123;PMS5003;56232;53.384;-2.732;2023-05-08T10:11:12;4;4;
69123;PMS5003;56232;53.384;-2.732;2023-05-08T10:13:37;4;4;
69123;PMS5003;56232;53.384;-2.732;2023-05-08T10:16:03;5;5;
69123;PMS5003;56232;53.384;-2.732;2023-05-08T10:18:28;5;5;
69123;PMS5003;56232;53.384;-2.732;2023-05-08T10:20:54;5;5;
69123;PMS5003;56232;53.384;-2.732;2023-05-08T10:23:20;5;5;
69123;PMS5003;56232;53.384;-2.732;2023-05-08T10:25:46;4;4;
69123;PMS5003;56232;53.384;-2.732;2023-05-08T10:28:12;4;4;
69123;PMS5003;56232;53.384;-2.732;2023-05-08T10:30:37;5;5;
69123;PMS5003;56232;53.384;-2.732;2023-05-08T10:33:02;5;5;
69123;PMS5003;56232;53.384;-2.732;2023-05-08T10:35:28;5;5;
69123;PMS5003;56232;53.384;-2.732;2023-05-08T10:37:53;5;5;
69123;PMS5003;56232;53.384;-2.732;2023-05-08T10:40:19;4;4;
69123;PMS5003;56232;53.384;-2.732;2023-05-08T10:42:44;5;5;
69123;PMS5003;56232;53.384;-2.732;2023-05-08T10:45:10;5;5;
69123;PMS5003;56232;53.384;-2.732;2023-05-08T10:47:41;5;5;
69123;PMS5003;56232;53.384;-2.732;2023-05-08T10:50:04;6;6;
69123;PMS5003;56232;53.384;-2.732;2023-05-08T10:52:28;6;5;
69123;PMS5003;56232;53.384;-2.732;2023-05-08T10:57:18;4;4;
69123;PMS5003;56232;53.384;-2.732;2023-05-08T10:59:44;4;4;
69123;PMS5003;56232;53.384;-2.732;2023-05-08T11:02:09;7;6;
69123;PMS5003;56232;53.384;-2.732;2023-05-08T11:04:35;6;6;
69123;PMS5003;56232;53.384;-2.732;2023-05-08T11:07:01;5;5;
69123;PMS5003;56232;53.384;-2.732;2023-05-08T11:09:27;6;5;
69123;PMS5003;56232;53.384;-2.732;2023-05-08T11:11:57;6;6;
69123;PMS5003;56232;53.384;-2.732;2023-05-08T11:14:17;6;6;
69123;PMS5003;56232;53.384;-2.732;2023-05-08T11:21:34;6;6;
69123;PMS5003;56232;53.384;-2.732;2023-05-08T11:24:00;5;5;
69123;PMS5003;56232;53.384;-2.732;2023-05-08T11:28:54;6;6;
69123;PMS5003;56232;53.384;-2.732;2023-05-08T11:31:17;5;5;
69123;PMS5003;56232;53.384;-2.732;2023-05-08T11:33:42;6;6;
69123;PMS5003;56232;53.384;-2.732;2023-05-08T11:36:11;5;5;
69123;PMS5003;56232;53.384;-2.732;2023-05-08T11:38:34;6;6;
69123;PMS5003;56232;53.384;-2.732;2023-05-08T11:41:00;4;4;
69123;PMS5003;56232;53.384;-2.732;2023-05-08T11:43:26;4;4;
69123;PMS5003;56232;53.384;-2.732;2023-05-08T11:45:51;7;7;
69123;PMS5003;56232;53.384;-2.732;2023-05-08T11:48:16;6;6;
69123;PMS5003;56232;53.384;-2.732;2023-05-08T11:50:41;6;6;
69123;PMS5003;56232;53.384;-2.732;2023-05-08T11:53:07;8;8;
69123;PMS5003;56232;53.384;-2.732;2023-05-08T11:55:33;9;9;
69123;PMS5003;56232;53.384;-2.732;2023-05-08T11:57:58;7;7;
69123;PMS5003;56232;53.384;-2.732;2023-05-08T12:00:24;6;6;
69123;PMS5003;56232;53.384;-2.732;2023-05-08T12:02:49;5;5;
69123;PMS5003;56232;53.384;-2.732;2023-05-08T12:05:15;5;5;
69123;PMS5003;56232;53.384;-2.732;2023-05-08T12:07:41;4;4;
69123;PMS5003;56232;53.384;-2.732;2023-05-08T12:10:07;6;6;
69123;PMS5003;56232;53.384;-2.732;2023-05-08T12:12:35;6;6;
69123;PMS5003;56232;53.384;-2.732;2023-05-08T12:14:57;5;5;
69123;PMS5003;56232;53.384;-2.732;2023-05-08T12:17:23;4;4;
69123;PMS5003;56232;53.384;-2.732;2023-05-08T12:19:53;5;5;
69123;PMS5003;56232;53.384;-2.732;2023-05-08T12:22:14;5;5;
69123;PMS5003;56232;53.384;-2.732;2023-05-08T12:24:39;7;7;
69123;PMS5003;56232;53.384;-2.732;2023-05-08T12:27:05;6;6;
69123;PMS5003;56232;53.384;-2.732;2023-05-08T12:29:34;5;5;
69123;PMS5003;56232;53.384;-2.732;2023-05-08T12:31:56;6;6;
69123;PMS5003;56232;53.384;-2.732;2023-05-08T12:34:22;6;6;
69123;PMS5003;56232;53.384;-2.732;2023-05-08T12:36:47;6;5;
69123;PMS5003;56232;53.384;-2.732;2023-05-08T12:39:14;7;7;
69123;PMS5003;56232;53.384;-2.732;2023-05-08T12:41:45;5;5;
69123;PMS5003;56232;53.384;-2.732;2023-05-08T12:44:14;4;4;
69123;PMS5003;56232;53.384;-2.732;2023-05-08T12:46:30;10;9;
69123;PMS5003;56232;53.384;-2.732;2023-05-08T12:48:59;5;5;
69123;PMS5003;56232;53.384;-2.732;2023-05-08T12:51:21;6;6;
69123;PMS5003;56232;53.384;-2.732;2023-05-08T12:53:46;4;4;
69123;PMS5003;56232;53.384;-2.732;2023-05-08T12:56:12;4;4;
69123;PMS5003;56232;53.384;-2.732;2023-05-08T12:58:37;7;6;
69123;PMS5003;56232;53.384;-2.732;2023-05-08T13:01:04;5;5;
69123;PMS5003;56232;53.384;-2.732;2023-05-08T13:03:29;6;6;
69123;PMS5003;56232;53.384;-2.732;2023-05-08T13:05:55;4;4;
69123;PMS5003;56232;53.384;-2.732;2023-05-08T13:08:27;6;6;
69123;PMS5003;56232;53.384;-2.732;2023-05-08T13:10:46;6;6;
69123;PMS5003;56232;53.384;-2.732;2023-05-08T13:13:11;5;5;
69123;PMS5003;56232;53.384;-2.732;2023-05-08T13:15:36;3;3;
69123;PMS5003;56232;53.384;-2.732;2023-05-08T13:18:02;6;5;
69123;PMS5003;56232;53.384;-2.732;2023-05-08T13:20:28;5;5;
69123;PMS5003;56232;53.384;-2.732;2023-05-08T13:22:53;5;5;
69123;PMS5003;56232;53.384;-2.732;2023-05-08T13:25:19;5;5;
69123;PMS5003;56232;53.384;-2.732;2023-05-08T13:27:44;4;4;
69123;PMS5003;56232;53.384;-2.732;2023-05-08T13:30:10;4;3;
69123;PMS5003;56232;53.384;-2.732;2023-05-08T13:32:35;6;5;
69123;PMS5003;56232;53.384;-2.732;2023-05-08T13:35:01;5;5;
69123;PMS5003;56232;53.384;-2.732;2023-05-08T13:37:26;4;4;
69123;PMS5003;56232;53.384;-2.732;2023-05-08T13:39:52;6;6;
69123;PMS5003;56232;53.384;-2.732;2023-05-08T13:42:18;4;4;
69123;PMS5003;56232;53.384;-2.732;2023-05-08T13:44:43;4;4;
69123;PMS5003;56232;53.384;-2.732;2023-05-08T13:47:09;5;5;
69123;PMS5003;56232;53.384;-2.732;2023-05-08T13:49:34;5;5;
69123;PMS5003;56232;53.384;-2.732;2023-05-08T13:52:00;5;5;
69123;PMS5003;56232;53.384;-2.732;2023-05-08T13:54:25;5;5;
69123;PMS5003;56232;53.384;-2.732;2023-05-08T13:56:51;6;6;
69123;PMS5003;56232;53.384;-2.732;2023-05-08T13:59:17;5;5;
69123;PMS5003;56232;53.384;-2.732;2023-05-08T14:01:42;6;6;
69123;PMS5003;56232;53.384;-2.732;2023-05-08T14:04:09;5;5;
69123;PMS5003;56232;53.384;-2.732;2023-05-08T14:06:33;6;6;
69123;PMS5003;56232;53.384;-2.732;2023-05-08T14:08:59;8;8;
69123;PMS5003;56232;53.384;-2.732;2023-05-08T14:11:24;6;6;
69123;PMS5003;56232;53.384;-2.732;2023-05-08T14:13:50;7;7;
69123;PMS5003;56232;53.384;-2.732;2023-05-08T14:16:16;8;8;
69123;PMS5003;56232;53.384;-2.732;2023-05-08T14:18:41;16;15;
69123;PMS5003;56232;53.384;-2.732;2023-05-08T14:21:07;14;14;
69123;PMS5003;56232;53.384;-2.732;2023-05-08T14:23:32;8;8;
69123;PMS5003;56232;53.384;-2.732;2023-05-08T14:25:58;6;6;
69123;PMS5003;56232;53.384;-2.732;2023-05-08T14:28:23;6;6;
69123;PMS5003;56232;53.384;-2.732;2023-05-08T14:30:49;6;6;
69123;PMS5003;56232;53.384;-2.732;2023-05-08T14:33:15;8;8;
69123;PMS5003;56232;53.384;-2.732;2023-05-08T14:35:40;10;10;
69123;PMS5003;56232;53.384;-2.732;2023-05-08T14:38:06;10;9;
69123;PMS5003;56232;53.384;-2.732;2023-05-08T14:40:31;9;9;
69123;PMS5003;56232;53.384;-2.732;2023-05-08T14:42:57;11;11;
69123;PMS5003;56232;53.384;-2.732;2023-05-08T14:45:22;9;9;
69123;PMS5003;56232;53.384;-2.732;2023-05-08T14:47:48;8;8;
69123;PMS5003;56232;53.384;-2.732;2023-05-08T14:50:14;9;9;
69123;PMS5003;56232;53.384;-2.732;2023-05-08T14:52:39;9;9;
69123;PMS5003;56232;53.384;-2.732;2023-05-08T14:55:05;7;7;
69123;PMS5003;56232;53.384;-2.732;2023-05-08T14:57:30;8;8;
69123;PMS5003;56232;53.384;-2.732;2023-05-08T14:59:56;8;8;
69123;PMS5003;56232;53.384;-2.732;2023-05-08T15:02:21;6;6;
69123;PMS5003;56232;53.384;-2.732;2023-05-08T15:04:47;8;8;
69123;PMS5003;56232;53.384;-2.732;2023-05-08T15:07:13;7;7;
69123;PMS5003;56232;53.384;-2.732;2023-05-08T15:09:38;6;6;
69123;PMS5003;56232;53.384;-2.732;2023-05-08T15:12:05;7;7;
69123;PMS5003;56232;53.384;-2.732;2023-05-08T15:14:29;8;7;
69123;PMS5003;56232;53.384;-2.732;2023-05-08T15:16:55;5;5;
69123;PMS5003;56232;53.384;-2.732;2023-05-08T15:19:21;6;6;
69123;PMS5003;56232;53.384;-2.732;2023-05-08T15:21:46;5;5;
69123;PMS5003;56232;53.384;-2.732;2023-05-08T15:24:12;8;8;
69123;PMS5003;56232;53.384;-2.732;2023-05-08T15:26:37;10;10;
69123;PMS5003;56232;53.384;-2.732;2023-05-08T15:29:03;8;8;
69123;PMS5003;56232;53.384;-2.732;2023-05-08T15:31:28;7;7;
69123;PMS5003;56232;53.384;-2.732;2023-05-08T15:33:54;7;7;
69123;PMS5003;56232;53.384;-2.732;2023-05-08T15:36:20;8;8;
69123;PMS5003;56232;53.384;-2.732;2023-05-08T15:38:45;10;10;
69123;PMS5003;56232;53.384;-2.732;2023-05-08T15:41:11;11;10;
69123;PMS5003;56232;53.384;-2.732;2023-05-08T15:43:36;9;9;
69123;PMS5003;56232;53.384;-2.732;2023-05-08T15:46:02;9;9;
69123;PMS5003;56232;53.384;-2.732;2023-05-08T15:48:28;7;6;
69123;PMS5003;56232;53.384;-2.732;2023-05-08T15:50:53;6;6;
69123;PMS5003;56232;53.384;-2.732;2023-05-08T15:53:19;9;9;
69123;PMS5003;56232;53.384;-2.732;2023-05-08T15:55:44;8;8;
69123;PMS5003;56232;53.384;-2.732;2023-05-08T15:58:10;26;26;
69123;PMS5003;56232;53.384;-2.732;2023-05-08T16:00:35;25;25;
69123;PMS5003;56232;53.384;-2.732;2023-05-08T16:03:01;34;33;
69123;PMS5003;56232;53.384;-2.732;2023-05-08T16:05:26;52;48;
69123;PMS5003;56232;53.384;-2.732;2023-05-08T16:07:52;8;8;
69123;PMS5003;56232;53.384;-2.732;2023-05-08T16:10:18;10;9;
69123;PMS5003;56232;53.384;-2.732;2023-05-08T16:12:43;12;12;
69123;PMS5003;56232;53.384;-2.732;2023-05-08T16:15:09;10;10;
69123;PMS5003;56232;53.384;-2.732;2023-05-08T16:17:35;8;8;
69123;PMS5003;56232;53.384;-2.732;2023-05-08T16:20:00;7;7;
69123;PMS5003;56232;53.384;-2.732;2023-05-08T16:22:26;8;7;
69123;PMS5003;56232;53.384;-2.732;2023-05-08T16:24:52;24;22;
69123;PMS5003;56232;53.384;-2.732;2023-05-08T16:27:16;6;6;
69123;PMS5003;56232;53.384;-2.732;2023-05-08T16:29:42;13;13;
69123;PMS5003;56232;53.384;-2.732;2023-05-08T16:32:08;10;10;
69123;PMS5003;56232;53.384;-2.732;2023-05-08T16:34:33;11;10;
69123;PMS5003;56232;53.384;-2.732;2023-05-08T16:36:59;7;7;
69123;PMS5003;56232;53.384;-2.732;2023-05-08T16:39:24;7;7;
69123;PMS5003;56232;53.384;-2.732;2023-05-08T16:41:50;4;4;
69123;PMS5003;56232;53.384;-2.732;2023-05-08T16:44:15;5;5;